sensor_id;sensor_type;location;lat;lon;timestamp;pressure;altitude;pressure_sealevel;temperature;humidity
9721;BME280;4899;42.644;23.366;2023-05-16T00:00:23;93985.22;;;14.60;100.00
9721;BME280;4899;42.644;23.366;2023-05-16T00:02:51;93983.97;;;14.54;100.00
9721;BME280;4899;42.644;23.366;2023-05-16T00:05:17;93986.72;;;14.61;100.00
9721;BME280;4899;42.644;23.366;2023-05-16T00:07:44;93971.09;;;14.57;100.00
9721;BME280;4899;42.644;23.366;2023-05-16T00:10:10;93978.53;;;14.59;100.00
9721;BME280;4899;42.644;23.366;2023-05-16T00:12:36;93980.44;;;14.62;100.00
9721;BME280;4899;42.644;23.366;2023-05-16T00:15:07;93973.63;;;14.54;100.00
9721;BME280;4899;42.644;23.366;2023-05-16T00:17:37;93969.53;;;14.53;100.00
9721;BME280;4899;42.644;23.366;2023-05-16T00:20:03;93968.44;;;14.54;100.00
9721;BME280;4899;42.644;23.366;2023-05-16T00:22:35;93955.59;;;14.41;100.00
9721;BME280;4899;42.644;23.366;2023-05-16T00:25:01;93972.47;;;14.51;100.00
9721;BME280;4899;42.644;23.366;2023-05-16T00:27:27;93969.53;;;14.53;100.00
9721;BME280;4899;42.644;23.366;2023-05-16T00:29:53;93973.56;;;14.50;100.00
9721;BME280;4899;42.644;23.366;2023-05-16T00:32:18;93959.69;;;14.42;100.00
9721;BME280;4899;42.644;23.366;2023-05-16T00:34:44;93960.94;;;14.49;100.00
9721;BME280;4899;42.644;23.366;2023-05-16T00:37:09;93966.13;;;14.49;100.00
9721;BME280;4899;42.644;23.366;2023-05-16T00:39:35;93972.47;;;14.51;100.00
9721;BME280;4899;42.644;23.366;2023-05-16T00:42:00;93968.03;;;14.52;100.00
9721;BME280;4899;42.644;23.366;2023-05-16T00:44:26;93950.19;;;14.46;100.00
9721;BME280;4899;42.644;23.366;2023-05-16T00:46:52;93940.31;;;14.36;100.00
9721;BME280;4899;42.644;23.366;2023-05-16T00:49:19;93943.16;;;14.47;100.00
9721;BME280;4899;42.644;23.366;2023-05-16T00:51:45;93925.72;;;14.44;100.00
9721;BME280;4899;42.644;23.366;2023-05-16T00:54:11;93925.72;;;14.44;100.00
9721;BME280;4899;42.644;23.366;2023-05-16T00:56:36;93935.13;;;14.52;100.00
9721;BME280;4899;42.644;23.366;2023-05-16T00:59:02;93931.81;;;14.52;100.00
9721;BME280;4899;42.644;23.366;2023-05-16T01:01:28;93936.97;;;14.52;100.00
9721;BME280;4899;42.644;23.366;2023-05-16T01:03:53;93931.47;;;14.53;100.00
9721;BME280;4899;42.644;23.366;2023-05-16T01:06:19;93935.47;;;14.51;100.00
9721;BME280;4899;42.644;23.366;2023-05-16T01:08:45;93927.72;;;14.51;100.00
9721;BME280;4899;42.644;23.366;2023-05-16T01:11:34;93933.56;;;14.48;100.00
9721;BME280;4899;42.644;23.366;2023-05-16T01:14:21;93932.41;;;14.45;100.00
9721;BME280;4899;42.644;23.366;2023-05-16T01:17:06;93932.31;;;14.41;100.00
9721;BME280;4899;42.644;23.366;2023-05-16T01:27:58;93921.53;;;14.39;100.00
9721;BME280;4899;42.644;23.366;2023-05-16T01:30:24;93918.28;;;14.42;100.00
9721;BME280;4899;42.644;23.366;2023-05-16T01:32:50;93909.34;;;14.40;100.00
9721;BME280;4899;42.644;23.366;2023-05-16T01:35:16;93913.78;;;14.39;100.00
9721;BME280;4899;42.644;23.366;2023-05-16T01:37:53;93903.44;;;14.39;100.00
9721;BME280;4899;42.644;23.366;2023-05-16T01:43:10;93884.00;;;14.30;100.00
9721;BME280;4899;42.644;23.366;2023-05-16T01:45:43;93877.38;;;14.32;100.00
9721;BME280;4899;42.644;23.366;2023-05-16T01:48:22;93882.50;;;14.44;100.00
9721;BME280;4899;42.644;23.366;2023-05-16T01:50:54;93884.88;;;14.37;100.00
9721;BME280;4899;42.644;23.366;2023-05-16T01:53:26;93884.81;;;14.34;100.00
9721;BME280;4899;42.644;23.366;2023-05-16T01:55:55;93878.06;;;14.29;100.00
9721;BME280;4899;42.644;23.366;2023-05-16T01:58:24;93881.06;;;14.31;100.00
9721;BME280;4899;42.644;23.366;2023-05-16T02:00:53;93883.91;;;14.26;100.00
9721;BME280;4899;42.644;23.366;2023-05-16T02:03:19;93883.25;;;14.29;100.00
9721;BME280;4899;42.644;23.366;2023-05-16T02:05:44;93878.75;;;14.26;100.00
9721;BME280;4899;42.644;23.366;2023-05-16T02:08:10;93882.41;;;14.25;100.00
9721;BME280;4899;42.644;23.366;2023-05-16T02:10:36;93877.59;;;14.24;100.00
9721;BME280;4899;42.644;23.366;2023-05-16T02:13:01;93885.00;;;14.25;100.00
9721;BME280;4899;42.644;23.366;2023-05-16T02:15:27;93866.41;;;14.20;100.00
9721;BME280;4899;42.644;23.366;2023-05-16T02:17:53;93875.88;;;14.31;100.00
9721;BME280;4899;42.644;23.366;2023-05-16T02:20:19;93869.06;;;14.23;100.00
9721;BME280;4899;42.644;23.366;2023-05-16T02:22:44;93870.56;;;14.24;100.00
9721;BME280;4899;42.644;23.366;2023-05-16T02:25:12;93858.38;;;14.25;100.00
9721;BME280;4899;42.644;23.366;2023-05-16T02:27:38;93860.22;;;14.24;100.00
9721;BME280;4899;42.644;23.366;2023-05-16T02:30:03;93861.03;;;14.28;100.00
9721;BME280;4899;42.644;23.366;2023-05-16T02:32:31;93864.84;;;14.34;100.00
9721;BME280;4899;42.644;23.366;2023-05-16T02:34:56;93856.09;;;14.39;100.00
9721;BME280;4899;42.644;23.366;2023-05-16T02:37:21;93856.50;;;14.41;100.00
9721;BME280;4899;42.644;23.366;2023-05-16T02:39:47;93867.38;;;14.46;100.00
9721;BME280;4899;42.644;23.366;2023-05-16T02:42:12;93861.78;;;14.44;100.00
9721;BME280;4899;42.644;23.366;2023-05-16T02:44:38;93860.53;;;14.38;100.00
9721;BME280;4899;42.644;23.366;2023-05-16T02:47:03;93861.50;;;14.50;100.00
9721;BME280;4899;42.644;23.366;2023-05-16T02:49:29;93863.06;;;14.54;100.00
9721;BME280;4899;42.644;23.366;2023-05-16T02:51:54;93855.66;;;14.53;100.00
9721;BME280;4899;42.644;23.366;2023-05-16T02:54:20;93862.31;;;14.54;100.00
9721;BME280;4899;42.644;23.366;2023-05-16T02:56:45;93851.69;;;14.59;100.00
9721;BME280;4899;42.644;23.366;2023-05-16T02:59:11;93849.53;;;14.61;100.00
9721;BME280;4899;42.644;23.366;2023-05-16T03:01:37;93852.19;;;14.64;100.00
9721;BME280;4899;42.644;23.366;2023-05-16T03:04:02;93850.44;;;14.68;100.00
9721;BME280;4899;42.644;23.366;2023-05-16T03:06:28;93861.25;;;14.74;100.00
9721;BME280;4899;42.644;23.366;2023-05-16T03:08:54;93853.75;;;14.69;100.00
9721;BME280;4899;42.644;23.366;2023-05-16T03:11:20;93859.41;;;14.74;100.00
9721;BME280;4899;42.644;23.366;2023-05-16T03:13:46;93857.50;;;14.71;100.00
9721;BME280;4899;42.644;23.366;2023-05-16T03:16:12;93853.34;;;14.67;100.00
9721;BME280;4899;42.644;23.366;2023-05-16T03:18:37;93858.94;;;14.69;100.00
9721;BME280;4899;42.644;23.366;2023-05-16T03:21:02;93865.06;;;14.80;100.00
9721;BME280;4899;42.644;23.366;2023-05-16T03:23:28;93854.56;;;14.73;100.00
9721;BME280;4899;42.644;23.366;2023-05-16T03:25:53;93856.19;;;14.81;100.00
9721;BME280;4899;42.644;23.366;2023-05-16T03:28:20;93869.56;;;14.83;100.00
9721;BME280;4899;42.644;23.366;2023-05-16T03:30:46;93845.72;;;14.74;100.00
9721;BME280;4899;42.644;23.366;2023-05-16T03:33:11;93845.72;;;14.74;100.00
9721;BME280;4899;42.644;23.366;2023-05-16T03:35:37;93846.88;;;14.76;100.00
9721;BME280;4899;42.644;23.366;2023-05-16T03:38:02;93849.94;;;14.82;100.00
9721;BME280;4899;42.644;23.366;2023-05-16T03:40:28;93857.00;;;14.85;100.00
9721;BME280;4899;42.644;23.366;2023-05-16T03:42:53;93844.91;;;14.89;100.00
9721;BME280;4899;42.644;23.366;2023-05-16T03:45:19;93859.69;;;14.89;100.00
9721;BME280;4899;42.644;23.366;2023-05-16T03:47:45;93853.66;;;14.85;100.00
9721;BME280;4899;42.644;23.366;2023-05-16T03:50:10;93857.00;;;14.85;100.00
9721;BME280;4899;42.644;23.366;2023-05-16T03:52:36;93867.47;;;14.89;100.00
9721;BME280;4899;42.644;23.366;2023-05-16T03:55:01;93861.94;;;14.90;100.00
9721;BME280;4899;42.644;23.366;2023-05-16T03:57:30;93863.09;;;14.93;100.00
9721;BME280;4899;42.644;23.366;2023-05-16T03:59:55;93856.34;;;14.88;100.00
9721;BME280;4899;42.644;23.366;2023-05-16T04:02:22;93856.34;;;14.88;100.00
9721;BME280;4899;42.644;23.366;2023-05-16T04:04:47;93840.66;;;14.81;100.00
9721;BME280;4899;42.644;23.366;2023-05-16T04:07:13;93854.97;;;14.94;100.00
9721;BME280;4899;42.644;23.366;2023-05-16T04:09:38;93844.69;;;14.98;100.00
9721;BME280;4899;42.644;23.366;2023-05-16T04:12:04;93859.94;;;15.03;100.00
9721;BME280;4899;42.644;23.366;2023-05-16T04:14:29;93859.13;;;14.99;100.00
9721;BME280;4899;42.644;23.366;2023-05-16T04:16:55;93851.41;;;15.02;100.00
9721;BME280;4899;42.644;23.366;2023-05-16T04:19:21;93862.59;;;15.06;100.00
9721;BME280;4899;42.644;23.366;2023-05-16T04:21:46;93860.63;;;15.00;100.00
9721;BME280;4899;42.644;23.366;2023-05-16T04:24:11;93868.91;;;15.09;100.00
9721;BME280;4899;42.644;23.366;2023-05-16T04:26:38;93853.13;;;15.14;100.00
9721;BME280;4899;42.644;23.366;2023-05-16T04:29:03;93857.25;;;15.19;100.00
9721;BME280;4899;42.644;23.366;2023-05-16T04:31:29;93857.72;;;15.24;100.00
9721;BME280;4899;42.644;23.366;2023-05-16T04:33:55;93852.53;;;15.24;100.00
9721;BME280;4899;42.644;23.366;2023-05-16T04:36:22;93854.53;;;15.34;100.00
9721;BME280;4899;42.644;23.366;2023-05-16T04:38:48;93862.13;;;15.43;100.00
9721;BME280;4899;42.644;23.366;2023-05-16T04:41:13;93850.59;;;15.41;100.00
9721;BME280;4899;42.644;23.366;2023-05-16T04:43:39;93848.47;;;15.46;100.00
9721;BME280;4899;42.644;23.366;2023-05-16T04:46:05;93851.91;;;15.54;100.00
9721;BME280;4899;42.644;23.366;2023-05-16T04:48:32;93857.16;;;15.57;100.00
9721;BME280;4899;42.644;23.366;2023-05-16T04:50:58;93863.44;;;15.56;100.00
9721;BME280;4899;42.644;23.366;2023-05-16T04:53:23;93869.44;;;15.60;100.00
9721;BME280;4899;42.644;23.366;2023-05-16T04:55:49;93861.19;;;15.55;100.00
9721;BME280;4899;42.644;23.366;2023-05-16T04:58:14;93852.91;;;15.46;100.00
9721;BME280;4899;42.644;23.366;2023-05-16T05:00:40;93867.41;;;15.50;100.00
9721;BME280;4899;42.644;23.366;2023-05-16T05:03:06;93855.94;;;15.51;100.00
9721;BME280;4899;42.644;23.366;2023-05-16T05:05:31;93850.72;;;15.48;100.00
9721;BME280;4899;42.644;23.366;2023-05-16T05:07:57;93855.53;;;15.49;100.00
9721;BME280;4899;42.644;23.366;2023-05-16T05:10:23;93854.00;;;15.45;100.00
9721;BME280;4899;42.644;23.366;2023-05-16T05:12:48;93861.81;;;15.48;100.00
9721;BME280;4899;42.644;23.366;2023-05-16T05:15:14;93860.38;;;15.51;100.00
9721;BME280;4899;42.644;23.366;2023-05-16T05:17:39;93864.91;;;15.57;100.00
9721;BME280;4899;42.644;23.366;2023-05-16T05:20:05;93860.44;;;15.54;100.00
9721;BME280;4899;42.644;23.366;2023-05-16T05:22:31;93859.50;;;15.62;100.00
9721;BME280;4899;42.644;23.366;2023-05-16T05:24:56;93868.44;;;15.65;100.00
9721;BME280;4899;42.644;23.366;2023-05-16T05:27:22;93874.47;;;15.73;100.00
9721;BME280;4899;42.644;23.366;2023-05-16T05:29:47;93863.00;;;15.74;100.00
9721;BME280;4899;42.644;23.366;2023-05-16T05:32:13;93854.47;;;15.73;100.00
9721;BME280;4899;42.644;23.366;2023-05-16T05:34:38;93846.69;;;15.73;100.00
9721;BME280;4899;42.644;23.366;2023-05-16T05:37:04;93846.03;;;15.80;100.00
9721;BME280;4899;42.644;23.366;2023-05-16T05:39:29;93844.25;;;15.84;100.00
9721;BME280;4899;42.644;23.366;2023-05-16T05:41:55;93847.56;;;15.84;100.00
9721;BME280;4899;42.644;23.366;2023-05-16T05:44:20;93841.28;;;15.85;100.00
9721;BME280;4899;42.644;23.366;2023-05-16T05:46:45;93842.16;;;15.93;100.00
9721;BME280;4899;42.644;23.366;2023-05-16T05:49:11;93836.56;;;15.91;100.00
9721;BME280;4899;42.644;23.366;2023-05-16T05:51:37;93839.56;;;15.93;100.00
9721;BME280;4899;42.644;23.366;2023-05-16T05:54:03;93843.75;;;16.01;100.00
9721;BME280;4899;42.644;23.366;2023-05-16T05:56:28;93828.44;;;15.92;100.00
9721;BME280;4899;42.644;23.366;2023-05-16T05:58:54;93844.53;;;16.05;100.00
9721;BME280;4899;42.644;23.366;2023-05-16T06:01:19;93842.00;;;16.09;100.00
9721;BME280;4899;42.644;23.366;2023-05-16T06:03:48;93839.50;;;16.16;100.00
9721;BME280;4899;42.644;23.366;2023-05-16T06:06:14;93833.84;;;16.10;100.00
9721;BME280;4899;42.644;23.366;2023-05-16T06:08:40;93836.56;;;16.17;100.00
9721;BME280;4899;42.644;23.366;2023-05-16T06:11:06;93849.94;;;16.19;100.00
9721;BME280;4899;42.644;23.366;2023-05-16T06:13:33;93848.88;;;16.24;100.00
9721;BME280;4899;42.644;23.366;2023-05-16T06:15:58;93845.19;;;16.25;100.00
9721;BME280;4899;42.644;23.366;2023-05-16T06:18:23;93837.75;;;16.23;100.00
9721;BME280;4899;42.644;23.366;2023-05-16T06:20:49;93839.25;;;16.24;100.00
9721;BME280;4899;42.644;23.366;2023-05-16T06:23:15;93848.94;;;16.27;100.00
9721;BME280;4899;42.644;23.366;2023-05-16T06:25:40;93849.63;;;16.24;100.00
9721;BME280;4899;42.644;23.366;2023-05-16T06:28:06;93855.22;;;16.26;100.00
9721;BME280;4899;42.644;23.366;2023-05-16T06:30:31;93855.66;;;16.32;100.00
9721;BME280;4899;42.644;23.366;2023-05-16T06:32:57;93849.28;;;16.26;100.00
9721;BME280;4899;42.644;23.366;2023-05-16T06:35:22;93841.19;;;16.31;100.00
9721;BME280;4899;42.644;23.366;2023-05-16T06:37:47;93837.94;;;16.38;100.00
9721;BME280;4899;42.644;23.366;2023-05-16T06:40:13;93831.25;;;16.37;100.00
9721;BME280;4899;42.644;23.366;2023-05-16T06:42:38;93844.53;;;16.31;100.00
9721;BME280;4899;42.644;23.366;2023-05-16T06:45:05;93834.50;;;16.30;100.00
9721;BME280;4899;42.644;23.366;2023-05-16T06:47:31;93825.66;;;16.35;100.00
9721;BME280;4899;42.644;23.366;2023-05-16T06:49:56;93818.91;;;16.30;100.00
9721;BME280;4899;42.644;23.366;2023-05-16T06:52:21;93813.03;;;16.33;100.00
9721;BME280;4899;42.644;23.366;2023-05-16T06:54:47;93811.28;;;16.41;100.00
9721;BME280;4899;42.644;23.366;2023-05-16T06:57:12;93817.63;;;16.43;100.00
9721;BME280;4899;42.644;23.366;2023-05-16T06:59:38;93815.06;;;16.47;100.00
9721;BME280;4899;42.644;23.366;2023-05-16T07:02:04;93823.31;;;16.56;100.00
9721;BME280;4899;42.644;23.366;2023-05-16T07:04:30;93836.34;;;16.59;100.00
9721;BME280;4899;42.644;23.366;2023-05-16T07:06:55;93821.16;;;16.61;100.00
9721;BME280;4899;42.644;23.366;2023-05-16T07:09:20;93819.81;;;16.71;100.00
9721;BME280;4899;42.644;23.366;2023-05-16T07:11:46;93824.69;;;16.76;100.00
9721;BME280;4899;42.644;23.366;2023-05-16T07:14:11;93827.31;;;16.80;100.00
9721;BME280;4899;42.644;23.366;2023-05-16T07:16:37;93810.28;;;16.82;100.00
9721;BME280;4899;42.644;23.366;2023-05-16T07:19:02;93798.56;;;16.99;100.00
9721;BME280;4899;42.644;23.366;2023-05-16T07:21:28;93787.88;;;17.08;100.00
9721;BME280;4899;42.644;23.366;2023-05-16T07:23:54;93789.06;;;17.14;100.00
9721;BME280;4899;42.644;23.366;2023-05-16T07:26:19;93797.31;;;17.23;100.00
9721;BME280;4899;42.644;23.366;2023-05-16T07:28:50;93779.88;;;17.27;100.00
9721;BME280;4899;42.644;23.366;2023-05-16T07:31:16;93798.19;;;17.41;100.00
9721;BME280;4899;42.644;23.366;2023-05-16T07:33:42;93799.00;;;17.49;100.00
9721;BME280;4899;42.644;23.366;2023-05-16T07:36:08;93805.03;;;17.60;100.00
9721;BME280;4899;42.644;23.366;2023-05-16T07:38:34;93805.78;;;17.61;100.00
9721;BME280;4899;42.644;23.366;2023-05-16T07:41:00;93803.59;;;17.66;100.00
9721;BME280;4899;42.644;23.366;2023-05-16T07:43:25;93813.66;;;17.68;100.00
9721;BME280;4899;42.644;23.366;2023-05-16T07:45:51;93821.50;;;17.75;100.00
9721;BME280;4899;42.644;23.366;2023-05-16T07:48:17;93817.75;;;17.69;100.00
9721;BME280;4899;42.644;23.366;2023-05-16T07:50:43;93811.81;;;17.72;100.00
9721;BME280;4899;42.644;23.366;2023-05-16T07:53:09;93799.63;;;17.83;100.00
9721;BME280;4899;42.644;23.366;2023-05-16T07:55:34;93793.38;;;17.91;100.00
9721;BME280;4899;42.644;23.366;2023-05-16T07:58:00;93763.53;;;17.78;100.00
9721;BME280;4899;42.644;23.366;2023-05-16T08:00:25;93800.88;;;18.03;100.00
9721;BME280;4899;42.644;23.366;2023-05-16T08:02:51;93809.81;;;18.06;100.00
9721;BME280;4899;42.644;23.366;2023-05-16T08:05:16;93787.59;;;18.26;100.00
9721;BME280;4899;42.644;23.366;2023-05-16T08:07:42;93780.59;;;18.41;100.00
9721;BME280;4899;42.644;23.366;2023-05-16T08:10:08;93772.06;;;18.48;100.00
9721;BME280;4899;42.644;23.366;2023-05-16T08:12:33;93784.34;;;18.54;100.00
9721;BME280;4899;42.644;23.366;2023-05-16T08:14:59;93775.09;;;18.60;100.00
9721;BME280;4899;42.644;23.366;2023-05-16T08:17:24;93768.81;;;18.83;100.00
9721;BME280;4899;42.644;23.366;2023-05-16T08:19:50;93772.94;;;18.98;100.00
9721;BME280;4899;42.644;23.366;2023-05-16T08:22:15;93787.09;;;19.04;100.00
9721;BME280;4899;42.644;23.366;2023-05-16T08:24:40;93774.47;;;19.20;100.00
9721;BME280;4899;42.644;23.366;2023-05-16T08:27:06;93779.69;;;19.42;100.00
9721;BME280;4899;42.644;23.366;2023-05-16T08:29:32;93789.41;;;19.55;100.00
9721;BME280;4899;42.644;23.366;2023-05-16T08:31:58;93791.63;;;19.67;100.00
9721;BME280;4899;42.644;23.366;2023-05-16T08:34:23;93778.97;;;19.66;100.00
9721;BME280;4899;42.644;23.366;2023-05-16T08:36:49;93762.91;;;19.78;100.00
9721;BME280;4899;42.644;23.366;2023-05-16T08:39:14;93770.00;;;19.74;100.00
9721;BME280;4899;42.644;23.366;2023-05-16T08:41:40;93794.56;;;20.05;100.00
9721;BME280;4899;42.644;23.366;2023-05-16T08:44:05;93790.38;;;20.29;100.00
9721;BME280;4899;42.644;23.366;2023-05-16T08:46:32;93790.00;;;20.31;100.00
9721;BME280;4899;42.644;23.366;2023-05-16T08:48:59;93788.13;;;20.38;100.00
9721;BME280;4899;42.644;23.366;2023-05-16T08:51:31;93781.72;;;20.57;100.00
9721;BME280;4899;42.644;23.366;2023-05-16T08:54:03;93787.59;;;20.79;100.00
9721;BME280;4899;42.644;23.366;2023-05-16T08:56:33;93777.69;;;21.11;100.00
9721;BME280;4899;42.644;23.366;2023-05-16T08:58:59;93773.25;;;21.08;100.00
9721;BME280;4899;42.644;23.366;2023-05-16T09:01:26;93775.75;;;21.26;100.00
9721;BME280;4899;42.644;23.366;2023-05-16T09:03:52;93764.09;;;21.38;100.00
9721;BME280;4899;42.644;23.366;2023-05-16T09:06:17;93771.97;;;21.31;100.00
9721;BME280;4899;42.644;23.366;2023-05-16T09:08:43;93755.97;;;21.18;100.00
9721;BME280;4899;42.644;23.366;2023-05-16T09:11:09;93773.13;;;21.23;98.96
9721;BME280;4899;42.644;23.366;2023-05-16T09:13:36;93775.38;;;21.24;98.67
9721;BME280;4899;42.644;23.366;2023-05-16T09:16:15;93772.50;;;21.08;91.16
9721;BME280;4899;42.644;23.366;2023-05-16T09:18:55;93786.25;;;21.15;96.39
9721;BME280;4899;42.644;23.366;2023-05-16T09:21:22;93771.41;;;21.02;98.76
9721;BME280;4899;42.644;23.366;2023-05-16T09:23:48;93788.97;;;20.98;99.17
9721;BME280;4899;42.644;23.366;2023-05-16T09:26:14;93785.22;;;21.02;99.78
9721;BME280;4899;42.644;23.366;2023-05-16T09:28:40;93774.00;;;21.02;98.63
9721;BME280;4899;42.644;23.366;2023-05-16T09:31:24;93780.09;;;20.88;91.55
9721;BME280;4899;42.644;23.366;2023-05-16T09:33:59;93774.44;;;20.93;95.51
9721;BME280;4899;42.644;23.366;2023-05-16T09:36:25;93775.56;;;20.92;100.00
9721;BME280;4899;42.644;23.366;2023-05-16T09:38:50;93776.28;;;21.00;99.96
9721;BME280;4899;42.644;23.366;2023-05-16T09:41:16;93757.28;;;20.88;95.74
9721;BME280;4899;42.644;23.366;2023-05-16T09:43:42;93788.25;;;20.97;98.33
9721;BME280;4899;42.644;23.366;2023-05-16T09:46:11;93784.44;;;21.09;96.27
9721;BME280;4899;42.644;23.366;2023-05-16T09:48:45;93766.53;;;21.07;95.22
9721;BME280;4899;42.644;23.366;2023-05-16T09:51:12;93770.94;;;21.14;98.32
9721;BME280;4899;42.644;23.366;2023-05-16T09:53:39;93762.63;;;21.33;97.53
9721;BME280;4899;42.644;23.366;2023-05-16T09:56:09;93767.06;;;21.40;96.51
9721;BME280;4899;42.644;23.366;2023-05-16T09:58:36;93768.16;;;21.42;96.03
9721;BME280;4899;42.644;23.366;2023-05-16T10:01:03;93749.69;;;21.60;95.56
9721;BME280;4899;42.644;23.366;2023-05-16T10:03:29;93760.72;;;21.82;94.87
9721;BME280;4899;42.644;23.366;2023-05-16T10:05:55;93757.50;;;22.05;93.69
9721;BME280;4899;42.644;23.366;2023-05-16T10:08:21;93763.91;;;22.34;92.09
9721;BME280;4899;42.644;23.366;2023-05-16T10:10:53;93760.97;;;22.32;81.05
9721;BME280;4899;42.644;23.366;2023-05-16T10:13:23;93769.22;;;22.27;84.71
9721;BME280;4899;42.644;23.366;2023-05-16T10:15:54;93760.16;;;22.35;86.85
9721;BME280;4899;42.644;23.366;2023-05-16T10:18:21;93757.19;;;22.33;83.69
9721;BME280;4899;42.644;23.366;2023-05-16T10:20:48;93770.88;;;22.14;86.56
9721;BME280;4899;42.644;23.366;2023-05-16T10:23:18;93769.91;;;22.35;83.26
9721;BME280;4899;42.644;23.366;2023-05-16T10:25:47;93771.66;;;22.45;85.01
9721;BME280;4899;42.644;23.366;2023-05-16T10:28:14;93760.66;;;22.57;85.79
9721;BME280;4899;42.644;23.366;2023-05-16T10:30:41;93759.13;;;22.60;86.57
9721;BME280;4899;42.644;23.366;2023-05-16T10:33:10;93747.06;;;22.66;84.81
9721;BME280;4899;42.644;23.366;2023-05-16T10:35:36;93753.94;;;22.53;85.30
9721;BME280;4899;42.644;23.366;2023-05-16T10:38:03;93744.69;;;22.45;85.68
9721;BME280;4899;42.644;23.366;2023-05-16T10:40:30;93737.47;;;22.52;84.40
9721;BME280;4899;42.644;23.366;2023-05-16T10:43:00;93742.50;;;22.70;79.79
9721;BME280;4899;42.644;23.366;2023-05-16T10:45:26;93733.22;;;22.92;79.68
9721;BME280;4899;42.644;23.366;2023-05-16T10:47:56;93717.53;;;23.39;75.94
9721;BME280;4899;42.644;23.366;2023-05-16T10:50:58;93729.56;;;23.83;65.39
9721;BME280;4899;42.644;23.366;2023-05-16T10:53:34;93721.66;;;24.03;66.09
9721;BME280;4899;42.644;23.366;2023-05-16T11:01:27;93723.50;;;24.06;67.43
9721;BME280;4899;42.644;23.366;2023-05-16T11:12:01;93719.00;;;23.40;67.97
9721;BME280;4899;42.644;23.366;2023-05-16T11:17:15;93720.13;;;23.16;68.07
9721;BME280;4899;42.644;23.366;2023-05-16T11:19:54;93687.25;;;22.84;69.41
9721;BME280;4899;42.644;23.366;2023-05-16T11:22:26;93707.91;;;22.52;75.84
9721;BME280;4899;42.644;23.366;2023-05-16T11:25:02;93716.31;;;22.66;75.23
9721;BME280;4899;42.644;23.366;2023-05-16T11:29:58;93724.78;;;22.78;77.08
9721;BME280;4899;42.644;23.366;2023-05-16T11:32:24;93709.38;;;22.83;77.58
9721;BME280;4899;42.644;23.366;2023-05-16T11:34:50;93702.38;;;22.73;78.88
9721;BME280;4899;42.644;23.366;2023-05-16T11:37:17;93710.97;;;22.73;79.28
9721;BME280;4899;42.644;23.366;2023-05-16T11:39:44;93711.09;;;22.93;78.49
9721;BME280;4899;42.644;23.366;2023-05-16T11:42:10;93708.28;;;22.77;76.15
9721;BME280;4899;42.644;23.366;2023-05-16T11:44:38;93723.97;;;22.84;76.54
9721;BME280;4899;42.644;23.366;2023-05-16T11:47:04;93713.38;;;22.91;77.43
9721;BME280;4899;42.644;23.366;2023-05-16T11:49:30;93706.31;;;22.88;75.15
9721;BME280;4899;42.644;23.366;2023-05-16T11:51:56;93725.69;;;22.94;74.98
9721;BME280;4899;42.644;23.366;2023-05-16T11:54:22;93730.81;;;23.05;75.83
9721;BME280;4899;42.644;23.366;2023-05-16T11:56:50;93730.06;;;23.28;73.91
9721;BME280;4899;42.644;23.366;2023-05-16T11:59:16;93725.44;;;23.82;71.05
9721;BME280;4899;42.644;23.366;2023-05-16T12:01:42;93717.47;;;24.25;68.09
9721;BME280;4899;42.644;23.366;2023-05-16T12:04:10;93709.84;;;24.51;64.54
9721;BME280;4899;42.644;23.366;2023-05-16T12:06:37;93701.03;;;24.94;63.41
9721;BME280;4899;42.644;23.366;2023-05-16T12:09:03;93699.66;;;25.22;61.91
9721;BME280;4899;42.644;23.366;2023-05-16T12:11:36;93682.28;;;25.24;59.81
9721;BME280;4899;42.644;23.366;2023-05-16T12:14:03;93691.31;;;25.56;58.52
9721;BME280;4899;42.644;23.366;2023-05-16T12:16:28;93697.09;;;26.09;57.20
9721;BME280;4899;42.644;23.366;2023-05-16T12:18:55;93714.16;;;26.33;56.63
9721;BME280;4899;42.644;23.366;2023-05-16T12:21:20;93700.91;;;27.00;55.58
9721;BME280;4899;42.644;23.366;2023-05-16T12:23:46;93699.00;;;27.61;54.46
9721;BME280;4899;42.644;23.366;2023-05-16T12:26:11;93694.38;;;27.86;53.95
9721;BME280;4899;42.644;23.366;2023-05-16T12:28:37;93685.81;;;28.04;53.55
9721;BME280;4899;42.644;23.366;2023-05-16T12:31:10;93681.28;;;28.05;50.98
9721;BME280;4899;42.644;23.366;2023-05-16T12:33:36;93682.50;;;27.56;53.13
9721;BME280;4899;42.644;23.366;2023-05-16T12:36:02;93686.88;;;26.65;54.77
9721;BME280;4899;42.644;23.366;2023-05-16T12:38:28;93692.16;;;26.11;55.48
9721;BME280;4899;42.644;23.366;2023-05-16T12:40:57;93681.59;;;25.53;56.51
9721;BME280;4899;42.644;23.366;2023-05-16T12:43:23;93677.75;;;24.92;57.23
9721;BME280;4899;42.644;23.366;2023-05-16T12:45:51;93674.09;;;24.53;59.17
9721;BME280;4899;42.644;23.366;2023-05-16T12:48:17;93679.50;;;24.10;60.81
9721;BME280;4899;42.644;23.366;2023-05-16T12:50:43;93676.28;;;23.83;62.09
9721;BME280;4899;42.644;23.366;2023-05-16T12:53:15;93691.00;;;23.53;62.04
9721;BME280;4899;42.644;23.366;2023-05-16T12:55:42;93674.19;;;23.27;63.38
9721;BME280;4899;42.644;23.366;2023-05-16T12:58:09;93695.16;;;23.08;64.75
9721;BME280;4899;42.644;23.366;2023-05-16T13:00:36;93683.84;;;22.87;66.43
9721;BME280;4899;42.644;23.366;2023-05-16T13:03:02;93686.19;;;22.78;65.71
9721;BME280;4899;42.644;23.366;2023-05-16T13:05:28;93683.50;;;22.55;66.85
9721;BME280;4899;42.644;23.366;2023-05-16T13:07:54;93677.50;;;22.31;70.31
9721;BME280;4899;42.644;23.366;2023-05-16T13:10:19;93674.59;;;22.22;72.27
9721;BME280;4899;42.644;23.366;2023-05-16T13:12:45;93689.66;;;22.14;75.01
9721;BME280;4899;42.644;23.366;2023-05-16T13:15:12;93684.91;;;22.02;77.46
9721;BME280;4899;42.644;23.366;2023-05-16T13:17:38;93677.44;;;22.00;77.25
9721;BME280;4899;42.644;23.366;2023-05-16T13:20:05;93683.91;;;21.92;78.96
9721;BME280;4899;42.644;23.366;2023-05-16T13:22:37;93678.06;;;21.77;83.99
9721;BME280;4899;42.644;23.366;2023-05-16T13:25:03;93661.00;;;21.66;84.81
9721;BME280;4899;42.644;23.366;2023-05-16T13:27:31;93687.28;;;21.55;87.20
9721;BME280;4899;42.644;23.366;2023-05-16T13:29:56;93688.59;;;21.36;90.89